Time;durP1;ratioP1;P1;durP2;ratioP2;P2;SDS_P1;SDS_P2;PMS_P1;PMS_P2;Temp;Humidity;BMP_temperature;BMP_pressure;BME280_temperature;BME280_humidity;BME280_pressure;Samples;Min_cycle;Max_cycle;Signal;HPM_P1;HPM_P2
2022/08/08 00:02:31;;;;;;;8.07;1.10;;;14.40;99.90;;;;;;5011853;28;20026;-81
2022/08/08 00:05:33;;;;;;;1.40;0.82;;;14.30;99.90;;;;;;5002596;28;20493;-81
2022/08/08 00:08:25;;;;;;;0.95;0.70;;;14.30;99.90;;;;;;5009247;28;20573;-81
2022/08/08 00:10:55;;;;;;;2.15;0.90;;;14.20;99.90;;;;;;5009061;28;20112;-80
2022/08/08 00:13:31;;;;;;;0.85;0.77;;;14.20;99.90;;;;;;5007154;28;20029;-80
2022/08/08 00:16:32;;;;;;;0.93;0.93;;;14.20;99.90;;;;;;5007554;28;20027;-81
2022/08/08 00:19:13;;;;;;;0.80;0.80;;;14.20;99.90;;;;;;5000185;28;20050;-81
2022/08/08 00:21:46;;;;;;;2.08;1.00;;;14.20;99.90;;;;;;5012845;28;20060;-80
2022/08/08 00:24:16;;;;;;;0.90;0.85;;;14.10;99.90;;;;;;5009738;28;20014;-81
2022/08/08 00:26:56;;;;;;;2.72;1.30;;;14.10;99.90;;;;;;5012674;28;20033;-80
2022/08/08 00:29:28;;;;;;;1.10;1.00;;;14.10;99.90;;;;;;5011329;28;20025;-81
2022/08/08 00:31:58;;;;;;;2.00;1.05;;;14.20;99.90;;;;;;5009380;28;20045;-81
2022/08/08 00:35:13;;;;;;;0.80;0.80;;;14.20;99.90;;;;;;5011662;28;20029;-81
2022/08/08 00:38:08;;;;;;;0.85;0.82;;;14.10;99.90;;;;;;5008404;28;20073;-80
2022/08/08 00:40:52;;;;;;;3.75;0.90;;;14.10;99.90;;;;;;5012526;28;20026;-81
2022/08/08 00:43:27;;;;;;;2.58;1.02;;;14.10;99.90;;;;;;5012064;28;20032;-81
2022/08/08 00:46:06;;;;;;;0.98;0.70;;;14.10;99.90;;;;;;5013138;28;20026;-81
2022/08/08 00:49:01;;;;;;;2.85;0.88;;;14.00;99.90;;;;;;5011023;28;20038;-81
2022/08/08 00:52:03;;;;;;;3.00;1.00;;;14.00;99.90;;;;;;4997190;28;20149;-81
2022/08/08 00:55:14;;;;;;;1.08;0.90;;;14.00;99.90;;;;;;5003315;28;20030;-81
2022/08/08 00:58:30;;;;;;;1.73;1.30;;;13.90;99.90;;;;;;5000005;28;20048;-80
2022/08/08 01:01:41;;;;;;;2.22;1.23;;;13.80;99.90;;;;;;5010246;28;20386;-81
2022/08/08 01:05:03;;;;;;;2.22;1.10;;;13.80;99.90;;;;;;5007255;28;20394;-81
2022/08/08 01:08:01;;;;;;;8.85;1.10;;;13.80;99.90;;;;;;5012076;28;20482;-81
2022/08/08 01:10:33;;;;;;;2.45;1.20;;;13.80;99.90;;;;;;5002787;28;20485;-80
2022/08/08 01:13:40;;;;;;;1.00;0.90;;;13.80;99.90;;;;;;5010457;28;20030;-80
2022/08/08 01:16:55;;;;;;;1.55;1.33;;;13.80;99.90;;;;;;5007737;28;20033;-81
2022/08/08 01:19:44;;;;;;;4.63;1.08;;;13.80;99.90;;;;;;4995969;28;20398;-81
2022/08/08 01:22:48;;;;;;;1.73;1.23;;;13.80;99.90;;;;;;5010607;28;20037;-80
2022/08/08 01:25:51;;;;;;;1.63;0.95;;;13.80;99.90;;;;;;5002659;28;20049;-81
2022/08/08 01:28:36;;;;;;;3.22;1.25;;;13.70;99.90;;;;;;5011930;28;20026;-81
2022/08/08 01:31:32;;;;;;;3.88;1.10;;;13.70;99.90;;;;;;5006201;28;20496;-79
2022/08/08 01:34:40;;;;;;;2.53;1.10;;;13.70;99.90;;;;;;4986822;28;20031;-79
2022/08/08 01:37:48;;;;;;;0.90;0.90;;;13.70;99.90;;;;;;4987540;28;20474;-82
2022/08/08 01:40:42;;;;;;;1.48;1.20;;;13.70;99.90;;;;;;4992262;28;20470;-81
2022/08/08 01:43:38;;;;;;;1.25;1.10;;;13.60;99.90;;;;;;4987225;28;20112;-79
2022/08/08 01:46:25;;;;;;;1.58;1.10;;;13.60;99.90;;;;;;4987419;28;20027;-79
2022/08/08 01:49:15;;;;;;;1.30;0.90;;;13.60;99.90;;;;;;4990970;28;20084;-81
2022/08/08 01:52:01;;;;;;;4.47;1.13;;;13.50;99.90;;;;;;4978067;28;20023;-81
2022/08/08 01:54:55;;;;;;;1.00;0.90;;;13.50;99.90;;;;;;4987612;28;20036;-82
2022/08/08 01:58:04;;;;;;;4.75;1.67;;;13.50;99.90;;;;;;4990766;28;20053;-81
2022/08/08 02:01:09;;;;;;;4.10;1.02;;;13.50;99.90;;;;;;4986121;28;20030;-79
2022/08/08 02:03:37;;;;;;;1.52;1.17;;;13.50;99.90;;;;;;4974697;28;20065;-81
2022/08/08 02:06:26;;;;;;;1.65;1.02;;;13.50;99.90;;;;;;4982842;28;20033;-79
2022/08/08 02:09:27;;;;;;;1.02;0.95;;;13.50;99.90;;;;;;4984795;28;20026;-81
2022/08/08 02:11:56;;;;;;;0.93;0.93;;;13.50;99.90;;;;;;4986276;28;20466;-81
2022/08/08 02:14:57;;;;;;;0.90;0.90;;;13.50;99.90;;;;;;4982266;28;20030;-81
2022/08/08 02:17:35;;;;;;;1.45;0.88;;;13.40;99.90;;;;;;4984215;28;20555;-81
2022/08/08 02:20:38;;;;;;;1.17;0.93;;;13.40;99.90;;;;;;4990729;28;20482;-82
2022/08/08 02:23:22;;;;;;;2.63;1.35;;;13.40;99.90;;;;;;4988243;28;20101;-81
2022/08/08 02:26:13;;;;;;;7.82;1.15;;;13.40;99.90;;;;;;4984782;28;20054;-81
2022/08/08 02:29:00;;;;;;;1.40;1.13;;;13.30;99.90;;;;;;4994621;28;20038;-79
2022/08/08 02:31:52;;;;;;;2.60;1.23;;;13.30;99.90;;;;;;4988592;28;20019;-82
2022/08/08 02:34:54;;;;;;;3.33;1.35;;;13.30;99.90;;;;;;4992248;28;20423;-82
2022/08/08 02:38:05;;;;;;;3.15;1.00;;;13.30;99.90;;;;;;4984490;28;20050;-79
2022/08/08 02:40:55;;;;;;;2.75;1.30;;;13.20;99.90;;;;;;4952977;29;20046;-82
2022/08/08 02:43:59;;;;;;;3.58;1.50;;;13.20;99.90;;;;;;4990830;28;20034;-81
2022/08/08 02:46:52;;;;;;;2.78;1.80;;;13.20;99.90;;;;;;4989286;28;20376;-82
2022/08/08 02:49:45;;;;;;;3.33;1.38;;;13.20;99.90;;;;;;4995650;28;20030;-81
2022/08/08 02:52:19;;;;;;;1.40;1.30;;;13.10;99.90;;;;;;4989302;28;20023;-82
2022/08/08 02:54:53;;;;;;;3.05;1.40;;;13.10;99.90;;;;;;4976276;28;20102;-82
2022/08/08 02:57:40;;;;;;;3.17;1.33;;;13.10;99.90;;;;;;4990086;28;20416;-79
2022/08/08 03:00:57;;;;;;;2.30;1.15;;;13.10;99.90;;;;;;4985038;28;20414;-81
2022/08/08 03:04:08;;;;;;;2.13;1.27;;;13.10;99.90;;;;;;4986079;28;20081;-81
2022/08/08 03:06:47;;;;;;;2.08;1.58;;;13.00;99.90;;;;;;4983105;28;20547;-79
2022/08/08 03:09:41;;;;;;;3.10;1.48;;;13.00;99.90;;;;;;4990788;28;20027;-79
2022/08/08 03:12:32;;;;;;;2.80;1.58;;;13.00;99.90;;;;;;4994478;28;20030;-81
2022/08/08 03:15:13;;;;;;;2.83;1.20;;;13.00;99.90;;;;;;4977826;28;20169;-81
2022/08/08 03:17:58;;;;;;;2.92;1.48;;;13.00;99.90;;;;;;4994237;28;20101;-81
2022/08/08 03:20:23;;;;;;;2.13;1.30;;;13.00;99.90;;;;;;4993453;28;20034;-81
2022/08/08 03:23:00;;;;;;;1.85;1.15;;;12.90;99.90;;;;;;4994312;28;20053;-82
2022/08/08 03:25:27;;;;;;;1.52;1.38;;;12.90;99.90;;;;;;4988293;28;20062;-80
2022/08/08 03:28:20;;;;;;;1.60;1.40;;;12.90;99.90;;;;;;4995451;28;20034;-79
2022/08/08 03:30:46;;;;;;;2.10;1.58;;;12.90;99.90;;;;;;4992605;28;20018;-79
2022/08/08 03:33:18;;;;;;;1.40;1.30;;;12.90;99.90;;;;;;5008128;28;20097;-81
2022/08/08 03:35:49;;;;;;;1.40;1.30;;;12.90;99.90;;;;;;5004202;28;20026;-81
2022/08/08 03:38:19;;;;;;;4.38;1.30;;;12.90;99.90;;;;;;5004388;28;20466;-81
2022/08/08 03:40:52;;;;;;;1.25;1.15;;;12.90;99.90;;;;;;5013646;28;20030;-81
2022/08/08 03:43:17;;;;;;;1.55;1.38;;;12.90;99.90;;;;;;5006135;28;20068;-82
2022/08/08 03:45:50;;;;;;;1.83;1.35;;;12.80;99.90;;;;;;5012437;28;20475;-81
2022/08/08 03:48:15;;;;;;;1.60;1.33;;;12.90;99.90;;;;;;4996803;28;20041;-80
2022/08/08 03:50:49;;;;;;;3.78;1.50;;;12.80;99.90;;;;;;5010244;28;20433;-81
2022/08/08 03:53:19;;;;;;;1.80;1.35;;;12.80;99.90;;;;;;5009081;28;20081;-81
2022/08/08 03:55:50;;;;;;;6.30;1.50;;;12.80;99.90;;;;;;5008066;28;20072;-80
2022/08/08 03:58:20;;;;;;;2.63;1.40;;;12.80;99.90;;;;;;5007865;28;20053;-80
2022/08/08 04:00:53;;;;;;;2.15;1.20;;;12.80;99.90;;;;;;5002495;28;20037;-80
2022/08/08 04:03:22;;;;;;;2.25;1.30;;;12.80;99.90;;;;;;5007960;28;20080;-80
2022/08/08 04:05:48;;;;;;;1.88;1.40;;;12.70;99.90;;;;;;5013122;28;20113;-80
2022/08/08 04:08:39;;;;;;;7.22;2.35;;;12.70;99.90;;;;;;5014048;28;20105;-80
2022/08/08 04:11:06;;;;;;;3.85;2.17;;;12.70;99.90;;;;;;5005898;28;20018;-80
2022/08/08 04:13:32;;;;;;;4.68;2.00;;;12.70;99.90;;;;;;5004272;28;20011;-80
2022/08/08 04:15:58;;;;;;;5.22;1.85;;;12.70;99.90;;;;;;5004820;28;20201;-80
2022/08/08 04:18:25;;;;;;;2.67;1.70;;;12.70;99.90;;;;;;5005587;28;20029;-80
2022/08/08 04:20:51;;;;;;;3.85;1.95;;;12.70;99.90;;;;;;5009028;28;20037;-80
2022/08/08 04:23:17;;;;;;;2.35;1.83;;;12.70;99.90;;;;;;5003403;28;20034;-80
2022/08/08 04:25:42;;;;;;;3.22;1.98;;;12.70;99.90;;;;;;5011737;28;20025;-80
2022/08/08 04:28:14;;;;;;;2.67;1.80;;;12.70;99.90;;;;;;5003101;28;20057;-80
2022/08/08 04:30:40;;;;;;;9.48;2.58;;;12.70;99.90;;;;;;5006200;28;20030;-81
2022/08/08 04:33:05;;;;;;;3.47;2.00;;;12.70;99.90;;;;;;5012453;28;20057;-80
2022/08/08 04:35:42;;;;;;;3.63;2.08;;;12.70;99.90;;;;;;5007376;28;20539;-80
2022/08/08 04:38:07;;;;;;;5.32;1.98;;;12.70;99.90;;;;;;5013105;28;20026;-80
2022/08/08 04:40:33;;;;;;;3.92;1.90;;;12.80;99.90;;;;;;5011282;28;20034;-80
2022/08/08 04:42:59;;;;;;;2.90;2.10;;;12.80;99.90;;;;;;5011448;28;20053;-80
2022/08/08 04:45:27;;;;;;;1.98;1.60;;;12.90;99.90;;;;;;5012820;28;20030;-80
2022/08/08 04:47:54;;;;;;;1.83;1.58;;;12.90;99.90;;;;;;5011061;28;20038;-80
2022/08/08 04:50:24;;;;;;;1.67;1.58;;;13.00;99.90;;;;;;5009069;28;20056;-80
2022/08/08 04:52:51;;;;;;;2.75;1.80;;;13.00;99.90;;;;;;5007324;28;20741;-80
2022/08/08 04:55:16;;;;;;;3.00;1.98;;;13.10;99.90;;;;;;5005960;28;20021;-80
2022/08/08 04:57:42;;;;;;;3.50;2.10;;;13.10;99.90;;;;;;5008836;28;20022;-80
2022/08/08 05:00:09;;;;;;;4.75;2.20;;;13.10;99.90;;;;;;5008611;28;20045;-80
2022/08/08 05:02:34;;;;;;;4.20;1.98;;;13.20;99.90;;;;;;5012568;28;20032;-80
2022/08/08 05:05:00;;;;;;;2.97;1.98;;;13.20;99.90;;;;;;5011975;28;20030;-80
2022/08/08 05:07:28;;;;;;;2.85;2.00;;;13.30;99.90;;;;;;5011174;28;20038;-80
2022/08/08 05:09:54;;;;;;;2.67;1.80;;;13.30;99.90;;;;;;5005822;28;20032;-80
2022/08/08 05:12:19;;;;;;;2.00;1.67;;;13.30;99.90;;;;;;5011517;28;20034;-80
2022/08/08 05:14:51;;;;;;;2.13;1.45;;;13.50;99.90;;;;;;5002889;28;20106;-80
2022/08/08 05:17:16;;;;;;;3.90;1.90;;;13.50;99.90;;;;;;5004364;28;20041;-80
2022/08/08 05:19:48;;;;;;;3.10;2.10;;;13.60;99.90;;;;;;5010527;28;20485;-80
2022/08/08 05:22:14;;;;;;;3.33;2.28;;;13.60;99.90;;;;;;5003255;28;20530;-80
2022/08/08 05:24:40;;;;;;;1.92;1.73;;;13.70;99.90;;;;;;4992960;28;20105;-80
2022/08/08 05:27:06;;;;;;;2.15;1.90;;;13.80;99.90;;;;;;5000034;28;20034;-80
2022/08/08 05:29:32;;;;;;;3.28;1.98;;;13.90;99.90;;;;;;5010187;28;20366;-80
2022/08/08 05:31:57;;;;;;;3.42;2.30;;;14.00;99.90;;;;;;5011372;28;20030;-80
2022/08/08 05:34:35;;;;;;;2.92;1.85;;;14.10;99.90;;;;;;5009249;28;20508;-80
2022/08/08 05:37:11;;;;;;;2.17;1.88;;;14.20;99.90;;;;;;4993030;28;20037;-80
2022/08/08 05:39:38;;;;;;;6.63;2.25;;;14.30;99.90;;;;;;5011932;28;20018;-80
2022/08/08 05:42:13;;;;;;;2.75;1.70;;;14.30;99.90;;;;;;5012843;28;20360;-80
2022/08/08 05:44:44;;;;;;;2.55;2.15;;;14.40;99.90;;;;;;4993166;28;20033;-80
2022/08/08 05:47:12;;;;;;;3.28;2.10;;;14.50;99.90;;;;;;5008782;28;20030;-80
2022/08/08 05:49:57;;;;;;;5.55;2.13;;;14.60;99.90;;;;;;5012200;28;20038;-80
2022/08/08 05:52:23;;;;;;;5.45;2.33;;;14.70;99.90;;;;;;5012407;28;20018;-80
2022/08/08 05:54:49;;;;;;;4.93;2.08;;;14.80;99.90;;;;;;5012655;28;20030;-80
2022/08/08 05:57:26;;;;;;;3.88;1.88;;;14.80;99.90;;;;;;5010827;28;20382;-80
2022/08/08 05:59:56;;;;;;;5.15;2.13;;;14.90;99.90;;;;;;5012714;28;20033;-81
2022/08/08 06:05:16;;;;;;;7.65;2.50;;;15.10;99.90;;;;;;5013553;28;20032;-80
2022/08/08 06:07:43;;;;;;;4.05;1.77;;;15.20;99.90;;;;;;5016181;28;20416;-80
2022/08/08 06:10:11;;;;;;;6.35;2.28;;;15.20;99.90;;;;;;5016408;28;20022;-80
2022/08/08 06:12:50;;;;;;;7.43;1.98;;;15.40;99.90;;;;;;5016549;28;20083;-80
2022/08/08 06:15:15;;;;;;;6.20;2.45;;;15.50;99.90;;;;;;5012917;28;20105;-80
2022/08/08 06:17:49;;;;;;;2.63;1.70;;;15.50;99.90;;;;;;5013963;28;20065;-80
2022/08/08 06:20:15;;;;;;;5.82;1.33;;;15.70;99.90;;;;;;5015939;28;20026;-81
2022/08/08 06:23:04;;;;;;;3.63;1.92;;;15.90;99.90;;;;;;5015636;28;20617;-81
2022/08/08 06:25:30;;;;;;;2.80;1.17;;;16.10;99.90;;;;;;5014836;28;20041;-81
2022/08/08 06:28:30;;;;;;;2.03;1.70;;;16.20;99.90;;;;;;5015226;28;20029;-80
2022/08/08 06:30:59;;;;;;;12.82;1.88;;;16.30;99.90;;;;;;5016165;28;20105;-80
2022/08/08 06:33:47;;;;;;;5.95;2.08;;;16.50;99.90;;;;;;5011645;28;20096;-80
2022/08/08 06:36:50;;;;;;;2.42;1.40;;;16.60;99.90;;;;;;5015324;28;20554;-80
2022/08/08 06:39:18;;;;;;;3.22;1.58;;;16.80;99.90;;;;;;4996511;28;20114;-80
2022/08/08 06:41:57;;;;;;;5.00;1.42;;;16.90;99.90;;;;;;5005311;28;20026;-80
2022/08/08 06:44:25;;;;;;;6.00;2.03;;;16.90;99.90;;;;;;4996178;28;20037;-81
2022/08/08 06:46:52;;;;;;;3.97;1.70;;;17.00;99.90;;;;;;5006079;28;20026;-81
2022/08/08 06:49:18;;;;;;;7.65;1.70;;;17.00;99.90;;;;;;5015407;28;20167;-81
2022/08/08 06:51:46;;;;;;;2.55;1.60;;;17.00;99.90;;;;;;5009110;28;20022;-80
2022/08/08 06:54:12;;;;;;;2.78;1.38;;;17.00;99.90;;;;;;5014777;28;20034;-81
2022/08/08 06:56:55;;;;;;;3.85;1.67;;;17.10;99.90;;;;;;5015343;28;20036;-81
2022/08/08 06:59:20;;;;;;;2.90;1.35;;;17.10;99.90;;;;;;5015332;28;20478;-80
2022/08/08 07:02:02;;;;;;;8.63;1.95;;;17.10;99.90;;;;;;5015374;28;20028;-81
2022/08/08 07:05:03;;;;;;;7.47;2.47;;;17.20;99.90;;;;;;5015087;28;20030;-81
2022/08/08 07:08:06;;;;;;;4.93;1.60;;;17.30;99.90;;;;;;4954795;29;20130;-80
2022/08/08 07:10:36;;;;;;;11.00;2.25;;;17.40;99.90;;;;;;4954468;29;20054;-81
2022/08/08 07:13:06;;;;;;;6.38;2.00;;;17.50;99.90;;;;;;4953821;28;20031;-81
2022/08/08 07:15:44;;;;;;;4.88;1.60;;;17.60;99.90;;;;;;4953878;28;20039;-80
2022/08/08 07:18:10;;;;;;;4.72;1.50;;;17.70;99.90;;;;;;4972387;28;20030;-81
2022/08/08 07:20:43;;;;;;;7.18;1.63;;;17.80;99.90;;;;;;5015087;28;20073;-81
2022/08/08 07:23:34;;;;;;;4.72;1.52;;;17.80;99.90;;;;;;5015143;28;20429;-80
2022/08/08 07:26:16;;;;;;;3.13;1.25;;;17.90;99.90;;;;;;5014256;28;20045;-81
2022/08/08 07:28:42;;;;;;;3.38;1.60;;;17.90;99.90;;;;;;5013937;28;20032;-80
2022/08/08 07:31:24;;;;;;;3.40;1.58;;;18.00;99.90;;;;;;5002013;28;20387;-81
2022/08/08 07:33:50;;;;;;;2.67;1.90;;;18.00;99.90;;;;;;5004601;28;20131;-80
2022/08/08 07:36:18;;;;;;;2.53;1.48;;;18.10;99.90;;;;;;5012368;28;20389;-80
2022/08/08 07:38:47;;;;;;;7.32;1.65;;;18.10;99.90;;;;;;5011763;28;20028;-80
2022/08/08 07:41:19;;;;;;;8.18;1.80;;;18.20;99.90;;;;;;5011471;28;20065;-80
2022/08/08 07:43:47;;;;;;;2.40;1.40;;;18.20;99.90;;;;;;5000055;28;20026;-80
2022/08/08 07:46:19;;;;;;;2.67;1.23;;;18.30;99.90;;;;;;5006865;28;20037;-81
2022/08/08 07:48:45;;;;;;;3.55;1.60;;;18.30;99.90;;;;;;5005064;28;20029;-81
2022/08/08 07:51:10;;;;;;;4.20;1.77;;;18.40;99.90;;;;;;5012649;28;20026;-80
2022/08/08 07:53:45;;;;;;;3.90;1.70;;;18.40;99.90;;;;;;5013911;28;20045;-80
2022/08/08 07:56:15;;;;;;;4.25;1.73;;;18.50;99.90;;;;;;5014059;28;20033;-80
2022/08/08 07:58:43;;;;;;;2.20;1.45;;;18.50;99.90;;;;;;5014010;28;20540;-80
2022/08/08 08:01:19;;;;;;;5.38;2.03;;;18.60;99.90;;;;;;5013934;28;20045;-80
2022/08/08 08:03:54;;;;;;;4.63;1.63;;;18.60;99.90;;;;;;5013727;28;20025;-80
2022/08/08 08:06:21;;;;;;;2.15;1.58;;;18.70;99.90;;;;;;5013645;28;20056;-80
2022/08/08 08:08:53;;;;;;;6.25;2.53;;;18.80;99.90;;;;;;5013707;28;20036;-80
2022/08/08 08:11:22;;;;;;;4.15;2.13;;;18.80;99.90;;;;;;5013723;28;20026;-80
2022/08/08 08:13:47;;;;;;;10.32;2.83;;;18.90;99.90;;;;;;5013716;28;20486;-81
2022/08/08 08:16:18;;;;;;;6.45;1.95;;;19.10;98.50;;;;;;5013772;28;20049;-80
2022/08/08 08:18:51;;;;;;;2.45;1.55;;;19.10;99.90;;;;;;5013657;28;20025;-80
2022/08/08 08:21:17;;;;;;;2.30;1.90;;;19.20;99.90;;;;;;5013301;28;20386;-81
2022/08/08 08:23:43;;;;;;;1.83;1.48;;;19.20;99.90;;;;;;5013481;28;20055;-81
2022/08/08 08:26:10;;;;;;;2.55;1.70;;;19.30;99.90;;;;;;5013472;28;20029;-80
2022/08/08 08:28:36;;;;;;;2.78;2.25;;;19.30;99.80;;;;;;5013387;28;20125;-80
2022/08/08 08:31:05;;;;;;;5.07;2.40;;;19.30;99.10;;;;;;5012300;28;20046;-80
2022/08/08 08:33:31;;;;;;;2.42;1.90;;;19.30;99.20;;;;;;5012715;28;20490;-81
2022/08/08 08:36:15;;;;;;;5.82;2.67;;;19.30;99.90;;;;;;4997305;28;20080;-81
2022/08/08 08:38:41;;;;;;;4.30;1.92;;;19.40;99.90;;;;;;5013468;28;20024;-81
2022/08/08 08:41:11;;;;;;;3.45;2.08;;;19.50;98.90;;;;;;5013250;28;20022;-81
2022/08/08 08:43:36;;;;;;;4.72;2.10;;;19.70;97.10;;;;;;5010517;28;20022;-82
2022/08/08 08:46:11;;;;;;;6.15;2.25;;;19.70;94.50;;;;;;5011712;28;20025;-81
2022/08/08 08:48:41;;;;;;;2.83;1.50;;;19.80;95.60;;;;;;5010249;28;20045;-81
2022/08/08 08:51:19;;;;;;;3.42;1.88;;;19.90;95.10;;;;;;5011873;28;20030;-81
2022/08/08 08:53:53;;;;;;;3.60;2.05;;;20.00;94.20;;;;;;5003724;28;20100;-81
2022/08/08 08:56:21;;;;;;;12.77;1.92;;;20.10;94.20;;;;;;5010233;28;20401;-81
2022/08/08 08:58:49;;;;;;;7.40;1.90;;;20.20;90.00;;;;;;5012216;28;20075;-81
2022/08/08 09:01:37;;;;;;;8.45;1.98;;;20.40;86.80;;;;;;5013499;28;20030;-81
2022/08/08 09:04:26;;;;;;;4.50;2.28;;;20.60;81.60;;;;;;5013517;28;20052;-81
2022/08/08 09:06:52;;;;;;;5.43;2.10;;;20.70;80.70;;;;;;5012822;28;20496;-81
2022/08/08 09:09:28;;;;;;;2.17;1.45;;;20.70;82.90;;;;;;5009452;28;20029;-81
2022/08/08 09:11:54;;;;;;;3.95;1.77;;;20.70;83.50;;;;;;5011087;28;20057;-81
2022/08/08 09:14:25;;;;;;;4.43;2.03;;;20.70;78.10;;;;;;5012053;28;20522;-80
2022/08/08 09:16:51;;;;;;;4.72;1.77;;;20.80;76.10;;;;;;5011776;28;20489;-81
2022/08/08 09:19:19;;;;;;;3.33;1.63;;;20.90;73.30;;;;;;5012878;28;20026;-81
2022/08/08 09:21:46;;;;;;;3.55;1.10;;;21.00;74.00;;;;;;5002004;28;20144;-81
2022/08/08 09:24:13;;;;;;;2.75;1.25;;;21.10;71.90;;;;;;5011911;28;20021;-81
2022/08/08 09:26:59;;;;;;;4.45;1.70;;;21.20;66.40;;;;;;5012898;28;20037;-81
2022/08/08 09:29:25;;;;;;;;;;;21.20;66.00;;;;;;5003953;28;20057;-81
2022/08/08 09:32:02;;;;;;;3.22;1.60;;;21.30;63.00;;;;;;5012613;28;19916;-81
2022/08/08 09:34:31;;;;;;;2.80;1.67;;;21.30;64.30;;;;;;5009120;28;20490;-81
2022/08/08 09:37:08;;;;;;;8.52;1.55;;;21.30;64.20;;;;;;4999586;28;20386;-80
2022/08/08 09:40:13;;;;;;;2.22;1.33;;;21.40;60.40;;;;;;5000000;28;20027;-81
2022/08/08 09:42:42;;;;;;;9.32;1.45;;;21.50;63.20;;;;;;5018143;28;20496;-81
2022/08/08 09:45:10;;;;;;;5.47;1.40;;;21.60;62.60;;;;;;5017521;28;20026;-81
2022/08/08 09:47:41;;;;;;;5.10;1.42;;;21.60;59.60;;;;;;5018066;28;20491;-81
2022/08/08 09:50:10;;;;;;;2.20;1.20;;;21.70;59.20;;;;;;4999520;28;20026;-81
2022/08/08 09:52:40;;;;;;;10.35;1.83;;;21.80;60.00;;;;;;5018665;28;20033;-81
2022/08/08 09:55:06;;;;;;;4.53;1.45;;;21.80;57.50;;;;;;5018194;28;20129;-81
2022/08/08 09:57:37;;;;;;;2.05;0.90;;;21.90;58.50;;;;;;5017800;28;20033;-81
2022/08/08 10:00:08;;;;;;;5.15;1.20;;;22.00;57.70;;;;;;5012254;28;20096;-81
2022/08/08 10:02:51;;;;;;;4.63;1.23;;;22.00;57.50;;;;;;5006719;28;20026;-81
2022/08/08 10:05:18;;;;;;;0.93;0.90;;;22.10;57.80;;;;;;5004520;28;20037;-81
2022/08/08 10:07:52;;;;;;;2.40;1.10;;;22.10;58.70;;;;;;5019175;28;20474;-81
2022/08/08 10:10:34;;;;;;;3.42;0.90;;;22.40;57.20;;;;;;5014129;28;20029;-81
2022/08/08 10:13:20;;;;;;;3.05;0.90;;;22.50;54.30;;;;;;4999946;28;20526;-81
2022/08/08 10:15:50;;;;;;;3.05;1.38;;;22.60;53.20;;;;;;5014707;28;20083;-81
2022/08/08 10:18:29;;;;;;;4.28;1.35;;;22.50;54.10;;;;;;5018585;28;20131;-81
2022/08/08 10:21:16;;;;;;;1.42;0.93;;;22.50;54.20;;;;;;5018659;28;20458;-81
2022/08/08 10:23:46;;;;;;;0.80;0.70;;;22.50;56.30;;;;;;5019171;28;20122;-82
2022/08/08 10:26:16;;;;;;;5.30;1.50;;;22.50;55.50;;;;;;5010224;28;20490;-81
2022/08/08 10:28:59;;;;;;;3.92;0.93;;;22.60;54.40;;;;;;5006884;28;20033;-81
2022/08/08 10:34:16;;;;;;;2.85;1.40;;;22.70;55.10;;;;;;5014777;28;20118;-81
2022/08/08 10:36:44;;;;;;;2.78;1.02;;;22.70;54.50;;;;;;5016391;28;20030;-81
2022/08/08 10:39:15;;;;;;;3.00;1.17;;;22.80;53.60;;;;;;5017738;28;20040;-81
2022/08/08 10:41:44;;;;;;;2.03;1.00;;;22.80;53.00;;;;;;5018453;28;20087;-81
2022/08/08 10:44:40;;;;;;;0.73;0.73;;;22.80;51.90;;;;;;5016510;28;20037;-82
2022/08/08 10:47:16;;;;;;;2.50;1.10;;;22.80;53.30;;;;;;5001887;28;20306;-81
2022/08/08 10:49:57;;;;;;;2.47;1.35;;;22.80;53.00;;;;;;4999209;28;20034;-82
2022/08/08 10:52:28;;;;;;;3.72;1.08;;;22.90;50.30;;;;;;4996281;28;20044;-81
2022/08/08 10:55:04;;;;;;;5.18;1.08;;;23.00;50.90;;;;;;4995790;28;20360;-81
2022/08/08 10:57:34;;;;;;;3.88;1.17;;;23.00;50.30;;;;;;4995799;28;20076;-82
2022/08/08 11:00:00;;;;;;;4.15;0.77;;;23.00;49.50;;;;;;4996209;28;20094;-82
2022/08/08 11:02:33;;;;;;;2.55;1.20;;;23.00;52.40;;;;;;4996072;28;20038;-82
2022/08/08 11:05:01;;;;;;;2.67;1.00;;;23.10;51.50;;;;;;4993872;28;20501;-82
2022/08/08 11:07:36;;;;;;;2.63;1.00;;;23.10;50.40;;;;;;4995436;28;20022;-82
2022/08/08 11:10:05;;;;;;;3.30;1.10;;;23.20;50.70;;;;;;4994611;28;20109;-82
2022/08/08 11:12:58;;;;;;;4.60;1.55;;;23.20;50.30;;;;;;4995698;28;20117;-82
2022/08/08 11:15:27;;;;;;;2.15;1.05;;;23.30;48.40;;;;;;4991159;28;20037;-82
2022/08/08 11:17:53;;;;;;;2.50;1.05;;;23.30;49.30;;;;;;4995780;28;20026;-82
2022/08/08 11:20:27;;;;;;;1.05;0.80;;;23.30;48.40;;;;;;4995610;28;20057;-82
2022/08/08 11:23:04;;;;;;;6.50;1.42;;;23.30;49.30;;;;;;4995637;28;20029;-82
2022/08/08 11:25:32;;;;;;;1.85;1.00;;;23.40;49.60;;;;;;4997331;28;20022;-82
2022/08/08 11:28:07;;;;;;;7.30;1.25;;;23.40;48.20;;;;;;5013271;28;20441;-82
2022/08/08 11:30:33;;;;;;;1.48;0.93;;;23.60;47.70;;;;;;5006269;28;20382;-82
2022/08/08 11:33:04;;;;;;;0.95;0.80;;;23.60;48.10;;;;;;5008942;28;20117;-82
2022/08/08 11:35:37;;;;;;;1.42;1.00;;;23.60;48.20;;;;;;5012247;28;20100;-82
2022/08/08 11:38:03;;;;;;;4.57;0.98;;;23.70;47.90;;;;;;5014981;28;20018;-81
2022/08/08 11:40:29;;;;;;;3.38;0.90;;;23.80;48.30;;;;;;4999414;28;20026;-82
2022/08/08 11:43:17;;;;;;;2.95;1.10;;;23.90;47.40;;;;;;4995345;28;20388;-83
2022/08/08 11:45:44;;;;;;;3.47;1.23;;;23.90;48.30;;;;;;5011211;28;20544;-82
2022/08/08 11:48:12;;;;;;;2.00;1.00;;;23.90;47.50;;;;;;5007930;28;20076;-82
2022/08/08 11:50:38;;;;;;;2.65;0.90;;;24.00;48.50;;;;;;4994909;28;20434;-82
2022/08/08 11:53:05;;;;;;;1.73;0.90;;;24.00;48.40;;;;;;5002892;28;20533;-82
2022/08/08 11:55:34;;;;;;;1.17;0.73;;;24.00;47.50;;;;;;5013085;28;20022;-82
2022/08/08 11:58:30;;;;;;;1.33;1.15;;;24.00;46.80;;;;;;5013970;28;20482;-82
2022/08/08 12:00:57;;;;;;;3.92;1.35;;;23.90;46.30;;;;;;5013449;28;20065;-82
2022/08/08 12:03:29;;;;;;;4.30;1.00;;;24.00;48.10;;;;;;5014444;28;20026;-82
2022/08/08 12:05:55;;;;;;;2.17;0.90;;;24.00;47.20;;;;;;5013876;28;20494;-82
2022/08/08 12:09:05;;;;;;;3.40;1.00;;;24.10;45.50;;;;;;5012321;28;20065;-82
2022/08/08 12:11:56;;;;;;;3.80;1.05;;;24.10;45.70;;;;;;5014362;28;20018;-82
2022/08/08 12:14:22;;;;;;;2.17;1.08;;;24.20;46.10;;;;;;5010039;28;20036;-82
2022/08/08 12:17:03;;;;;;;7.00;1.20;;;24.20;46.50;;;;;;5014145;28;20018;-82
2022/08/08 12:19:54;;;;;;;2.05;1.52;;;24.20;46.50;;;;;;5013761;28;20473;-82
2022/08/08 12:22:20;;;;;;;3.40;1.00;;;24.20;46.00;;;;;;5014099;28;20028;-82
2022/08/08 12:25:26;;;;;;;3.88;1.17;;;24.20;46.10;;;;;;5013680;28;20109;-82
2022/08/08 12:28:12;;;;;;;2.28;1.20;;;24.20;45.90;;;;;;5014174;28;20030;-82
2022/08/08 12:30:38;;;;;;;1.30;1.20;;;24.20;45.30;;;;;;5013502;28;20056;-82
2022/08/08 12:33:16;;;;;;;4.53;1.30;;;24.20;45.10;;;;;;5012787;28;20462;-82
2022/08/08 12:35:42;;;;;;;5.18;1.13;;;24.20;45.70;;;;;;5013288;28;20030;-82
2022/08/08 12:38:08;;;;;;;2.70;0.82;;;24.20;46.90;;;;;;5013890;28;20080;-82
2022/08/08 12:40:45;;;;;;;3.78;1.20;;;24.30;46.70;;;;;;5007875;28;20030;-82
2022/08/08 12:43:11;;;;;;;2.00;0.73;;;24.40;47.00;;;;;;5013342;28;20022;-82
2022/08/08 12:45:42;;;;;;;1.08;0.98;;;24.50;46.10;;;;;;5013618;28;20026;-82
2022/08/08 12:48:30;;;;;;;7.68;2.25;;;24.50;45.70;;;;;;5010042;28;20100;-82
2022/08/08 12:50:57;;;;;;;4.20;1.10;;;24.50;45.30;;;;;;5000772;28;20534;-82
2022/08/08 12:53:37;;;;;;;5.38;1.33;;;24.60;45.80;;;;;;5013636;28;20022;-82
2022/08/08 12:56:04;;;;;;;1.08;0.93;;;24.70;45.90;;;;;;5009675;28;20052;-82
2022/08/08 12:59:15;;;;;;;1.38;1.20;;;24.80;44.70;;;;;;4993876;28;20022;-82
2022/08/08 13:01:50;;;;;;;1.35;0.77;;;24.80;44.50;;;;;;4970877;28;20031;-81
2022/08/08 13:04:19;;;;;;;4.80;1.05;;;24.90;43.60;;;;;;5002908;28;20048;-81
2022/08/08 13:06:53;;;;;;;1.60;0.70;;;24.80;44.10;;;;;;5004138;28;20034;-81
2022/08/08 13:09:35;;;;;;;3.88;1.77;;;24.90;44.90;;;;;;4993133;28;20033;-81
2022/08/08 13:12:10;;;;;;;2.67;1.02;;;24.90;44.90;;;;;;5011077;28;20018;-82
2022/08/08 13:14:41;;;;;;;1.60;1.00;;;25.00;44.40;;;;;;5010113;28;20021;-81
2022/08/08 13:17:25;;;;;;;2.40;1.08;;;25.30;42.80;;;;;;5011551;28;20043;-81
2022/08/08 13:19:53;;;;;;;2.25;1.00;;;25.40;42.10;;;;;;5011883;28;20100;-81
2022/08/08 13:22:19;;;;;;;3.35;1.10;;;25.40;42.50;;;;;;5012847;28;20044;-81
2022/08/08 13:24:44;;;;;;;4.85;1.38;;;25.40;41.60;;;;;;5012159;28;20026;-81
2022/08/08 13:27:12;;;;;;;1.02;0.93;;;25.40;42.00;;;;;;5012616;28;20355;-81
2022/08/08 13:29:54;;;;;;;4.22;1.30;;;25.30;42.10;;;;;;5002262;28;20112;-81
2022/08/08 13:32:21;;;;;;;9.40;1.25;;;25.20;41.90;;;;;;5012627;28;20018;-81
2022/08/08 13:34:57;;;;;;;8.05;1.30;;;25.20;42.90;;;;;;5006191;28;20557;-81
2022/08/08 13:37:27;;;;;;;3.05;1.38;;;25.20;42.60;;;;;;5012547;28;20057;-82
2022/08/08 13:40:04;;;;;;;1.92;0.93;;;25.10;42.50;;;;;;5009634;28;20106;-81
2022/08/08 13:42:29;;;;;;;3.33;0.95;;;25.10;43.00;;;;;;4993571;28;20077;-81
2022/08/08 13:44:58;;;;;;;5.18;1.23;;;25.10;43.00;;;;;;5011482;28;20482;-81